sensor_id;sensor_type;location;lat;lon;timestamp;pressure;altitude;pressure_sealevel;temperature;humidity
40490;BME280;26196;52.302;10.572;2023-07-20T00:00:01;100335.88;;;22.97;45.18
40490;BME280;26196;52.302;10.572;2023-07-20T00:04:01;100318.16;;;22.85;45.29
40490;BME280;26196;52.302;10.572;2023-07-20T00:08:01;100332.00;;;22.90;44.82
40490;BME280;26196;52.302;10.572;2023-07-20T00:12:02;100329.31;;;22.90;44.77
40490;BME280;26196;52.302;10.572;2023-07-20T00:16:02;100317.13;;;22.76;44.99
40490;BME280;26196;52.302;10.572;2023-07-20T00:20:03;100282.47;;;22.54;44.54
40490;BME280;26196;52.302;10.572;2023-07-20T00:24:39;100341.69;;;22.91;45.08
40490;BME280;26196;52.302;10.572;2023-07-20T00:28:39;100327.84;;;22.86;45.08
40490;BME280;26196;52.302;10.572;2023-07-20T00:32:39;100316.84;;;22.79;45.14
40490;BME280;26196;52.302;10.572;2023-07-20T00:36:40;100327.03;;;22.85;45.24
40490;BME280;26196;52.302;10.572;2023-07-20T00:41:14;100328.84;;;22.85;45.04
40490;BME280;26196;52.302;10.572;2023-07-20T00:45:15;100301.25;;;22.63;45.23
40490;BME280;26196;52.302;10.572;2023-07-20T00:49:16;100315.66;;;22.72;44.58
40490;BME280;26196;52.302;10.572;2023-07-20T00:53:16;100287.44;;;22.58;45.07
40490;BME280;26196;52.302;10.572;2023-07-20T00:57:51;100319.53;;;22.79;45.08
40490;BME280;26196;52.302;10.572;2023-07-20T01:01:51;100320.88;;;22.74;44.91
40490;BME280;26196;52.302;10.572;2023-07-20T01:06:31;100331.16;;;22.78;44.47
40490;BME280;26196;52.302;10.572;2023-07-20T01:10:43;100317.38;;;22.62;44.45
40490;BME280;26196;52.302;10.572;2023-07-20T01:14:46;100324.53;;;22.61;44.57
40490;BME280;26196;52.302;10.572;2023-07-20T01:19:23;100343.19;;;22.72;43.93
40490;BME280;26196;52.302;10.572;2023-07-20T01:32:24;100302.22;;;22.51;44.31
40490;BME280;26196;52.302;10.572;2023-07-20T01:36:27;100298.84;;;22.49;44.14
40490;BME280;26196;52.302;10.572;2023-07-20T01:45:00;100327.31;;;22.60;43.30
40490;BME280;26196;52.302;10.572;2023-07-20T01:49:00;100296.91;;;22.40;43.65
40490;BME280;26196;52.302;10.572;2023-07-20T01:53:35;100325.50;;;22.60;44.00
40490;BME280;26196;52.302;10.572;2023-07-20T01:57:35;100325.88;;;22.56;43.21
40490;BME280;26196;52.302;10.572;2023-07-20T02:01:36;100327.81;;;22.54;43.17
40490;BME280;26196;52.302;10.572;2023-07-20T02:10:13;100320.78;;;22.53;43.44
40490;BME280;26196;52.302;10.572;2023-07-20T02:14:14;100321.50;;;22.55;43.10
40490;BME280;26196;52.302;10.572;2023-07-20T02:18:14;100322.09;;;22.47;42.75
40490;BME280;26196;52.302;10.572;2023-07-20T02:22:49;100334.81;;;22.55;42.82
40490;BME280;26196;52.302;10.572;2023-07-20T02:26:49;100340.66;;;22.48;42.25
40490;BME280;26196;52.302;10.572;2023-07-20T02:31:23;100338.72;;;22.50;42.19
40490;BME280;26196;52.302;10.572;2023-07-20T02:35:24;100335.44;;;22.47;42.34
40490;BME280;26196;52.302;10.572;2023-07-20T02:39:24;100335.69;;;22.44;42.33
40490;BME280;26196;52.302;10.572;2023-07-20T02:43:24;100282.00;;;22.03;42.46
40490;BME280;26196;52.302;10.572;2023-07-20T02:47:25;100282.97;;;22.14;42.25
40490;BME280;26196;52.302;10.572;2023-07-20T02:51:59;100346.25;;;22.45;42.21
40490;BME280;26196;52.302;10.572;2023-07-20T02:56:00;100329.03;;;22.38;42.57
40490;BME280;26196;52.302;10.572;2023-07-20T03:00:37;100342.00;;;22.43;41.96
40490;BME280;26196;52.302;10.572;2023-07-20T03:04:37;100343.09;;;22.40;42.05
40490;BME280;26196;52.302;10.572;2023-07-20T03:08:38;100347.81;;;22.37;42.05
40490;BME280;26196;52.302;10.572;2023-07-20T03:12:38;100341.88;;;22.33;42.37
40490;BME280;26196;52.302;10.572;2023-07-20T03:17:13;100350.25;;;22.40;41.98
40490;BME280;26196;52.302;10.572;2023-07-20T03:21:13;100349.16;;;22.31;42.01
40490;BME280;26196;52.302;10.572;2023-07-20T03:25:48;100355.09;;;22.35;42.01
40490;BME280;26196;52.302;10.572;2023-07-20T03:29:48;100347.81;;;22.25;42.07
40490;BME280;26196;52.302;10.572;2023-07-20T03:34:25;100358.72;;;22.34;41.95
40490;BME280;26196;52.302;10.572;2023-07-20T03:38:26;100346.88;;;22.26;41.94
40490;BME280;26196;52.302;10.572;2023-07-20T03:42:27;100332.81;;;22.24;41.79
40490;BME280;26196;52.302;10.572;2023-07-20T03:46:27;100326.13;;;22.19;41.82
40490;BME280;26196;52.302;10.572;2023-07-20T03:51:05;100358.00;;;22.32;41.90
40490;BME280;26196;52.302;10.572;2023-07-20T03:55:05;100292.75;;;21.91;41.75
40490;BME280;26196;52.302;10.572;2023-07-20T03:59:44;100351.94;;;22.30;41.77
40490;BME280;26196;52.302;10.572;2023-07-20T04:04:15;100351.81;;;22.31;41.94
40490;BME280;26196;52.302;10.572;2023-07-20T04:13:28;100369.03;;;22.27;41.80
40490;BME280;26196;52.302;10.572;2023-07-20T04:17:28;100342.47;;;22.14;41.91
40490;BME280;26196;52.302;10.572;2023-07-20T04:21:30;100359.47;;;22.24;41.89
40490;BME280;26196;52.302;10.572;2023-07-20T04:26:04;100347.06;;;22.23;41.93
40490;BME280;26196;52.302;10.572;2023-07-20T04:30:42;100355.22;;;22.22;41.99
40490;BME280;26196;52.302;10.572;2023-07-20T04:34:42;100328.63;;;22.09;42.06
40490;BME280;26196;52.302;10.572;2023-07-20T04:39:17;100351.81;;;22.20;41.65
40490;BME280;26196;52.302;10.572;2023-07-20T04:43:17;100330.72;;;22.05;41.54
40490;BME280;26196;52.302;10.572;2023-07-20T04:47:18;100325.38;;;22.05;41.52
40490;BME280;26196;52.302;10.572;2023-07-20T04:51:55;100363.53;;;22.17;41.47
40490;BME280;26196;52.302;10.572;2023-07-20T04:55:55;100307.28;;;21.87;41.32
40490;BME280;26196;52.302;10.572;2023-07-20T05:00:30;100363.53;;;22.17;41.76
40490;BME280;26196;52.302;10.572;2023-07-20T05:04:33;100350.22;;;22.06;42.02
40490;BME280;26196;52.302;10.572;2023-07-20T05:08:34;100329.47;;;21.98;47.20
40490;BME280;26196;52.302;10.572;2023-07-20T05:12:34;100344.50;;;21.99;47.11
40490;BME280;26196;52.302;10.572;2023-07-20T05:17:08;100369.13;;;22.14;47.34
40490;BME280;26196;52.302;10.572;2023-07-20T05:21:46;100372.50;;;22.16;46.68
40490;BME280;26196;52.302;10.572;2023-07-20T05:26:23;100376.88;;;22.17;46.73
40490;BME280;26196;52.302;10.572;2023-07-20T05:31:02;100379.63;;;22.16;46.10
40490;BME280;26196;52.302;10.572;2023-07-20T05:35:03;100367.63;;;22.10;46.49
40490;BME280;26196;52.302;10.572;2023-07-20T05:39:40;100380.72;;;22.13;47.37
40490;BME280;26196;52.302;10.572;2023-07-20T05:43:41;100371.53;;;22.06;47.55
40490;BME280;26196;52.302;10.572;2023-07-20T05:47:42;100384.63;;;22.09;47.93
40490;BME280;26196;52.302;10.572;2023-07-20T05:51:43;100369.81;;;22.05;47.99
40490;BME280;26196;52.302;10.572;2023-07-20T05:55:43;100391.63;;;22.10;48.24
40490;BME280;26196;52.302;10.572;2023-07-20T05:59:43;100352.81;;;21.83;47.98
40490;BME280;26196;52.302;10.572;2023-07-20T06:03:44;100394.88;;;22.02;47.78
40490;BME280;26196;52.302;10.572;2023-07-20T06:08:19;100401.78;;;22.05;47.53
40490;BME280;26196;52.302;10.572;2023-07-20T06:17:16;100395.72;;;21.92;47.68
40490;BME280;26196;52.302;10.572;2023-07-20T06:21:16;100409.03;;;21.92;47.88
40490;BME280;26196;52.302;10.572;2023-07-20T06:25:17;100412.69;;;21.91;48.12
40490;BME280;26196;52.302;10.572;2023-07-20T06:29:51;100419.47;;;21.95;48.09
40490;BME280;26196;52.302;10.572;2023-07-20T06:33:51;100413.88;;;21.87;48.48
40490;BME280;26196;52.302;10.572;2023-07-20T06:38:26;100422.25;;;21.93;48.60
40490;BME280;26196;52.302;10.572;2023-07-20T06:42:26;100430.69;;;21.87;48.29
40490;BME280;26196;52.302;10.572;2023-07-20T06:46:27;100413.75;;;21.77;48.32
40490;BME280;26196;52.302;10.572;2023-07-20T06:50:27;100425.59;;;21.84;48.26
40490;BME280;26196;52.302;10.572;2023-07-20T06:54:27;100427.16;;;21.75;48.41
40490;BME280;26196;52.302;10.572;2023-07-20T06:59:02;100440.97;;;21.80;48.39
40490;BME280;26196;52.302;10.572;2023-07-20T07:03:02;100442.06;;;21.78;48.62
40490;BME280;26196;52.302;10.572;2023-07-20T07:07:03;100399.72;;;21.51;48.83
40490;BME280;26196;52.302;10.572;2023-07-20T07:11:04;100442.31;;;21.75;48.96
40490;BME280;26196;52.302;10.572;2023-07-20T07:15:39;100444.84;;;21.76;48.91
40490;BME280;26196;52.302;10.572;2023-07-20T07:19:40;100439.97;;;21.70;49.25
40490;BME280;26196;52.302;10.572;2023-07-20T07:24:17;100452.19;;;21.61;49.72
40490;BME280;26196;52.302;10.572;2023-07-20T07:28:18;100436.69;;;21.42;49.89
40490;BME280;26196;52.302;10.572;2023-07-20T07:32:52;100438.34;;;21.56;50.19
40490;BME280;26196;52.302;10.572;2023-07-20T07:36:52;100431.44;;;21.54;50.31
40490;BME280;26196;52.302;10.572;2023-07-20T07:41:27;100453.25;;;21.59;50.41
40490;BME280;26196;52.302;10.572;2023-07-20T07:45:27;100436.13;;;21.50;50.28
40490;BME280;26196;52.302;10.572;2023-07-20T07:49:28;100435.19;;;21.51;50.31
40490;BME280;26196;52.302;10.572;2023-07-20T07:53:29;100446.84;;;21.61;50.29
40490;BME280;26196;52.302;10.572;2023-07-20T07:57:29;100449.28;;;21.65;49.90
40490;BME280;26196;52.302;10.572;2023-07-20T08:02:04;100458.34;;;21.62;49.86
40490;BME280;26196;52.302;10.572;2023-07-20T08:06:39;100463.78;;;21.60;49.76
40490;BME280;26196;52.302;10.572;2023-07-20T08:10:40;100439.84;;;21.48;49.74
40490;BME280;26196;52.302;10.572;2023-07-20T08:14:40;100442.66;;;21.46;49.91
40490;BME280;26196;52.302;10.572;2023-07-20T08:18:42;100450.75;;;21.45;49.89
40490;BME280;26196;52.302;10.572;2023-07-20T08:23:16;100480.09;;;21.56;49.71
40490;BME280;26196;52.302;10.572;2023-07-20T08:27:16;100443.09;;;21.27;49.86
40490;BME280;26196;52.302;10.572;2023-07-20T08:31:51;100487.59;;;21.51;49.78
40490;BME280;26196;52.302;10.572;2023-07-20T08:35:51;100475.78;;;21.42;49.70
40490;BME280;26196;52.302;10.572;2023-07-20T08:39:52;100441.41;;;21.26;49.65
40490;BME280;26196;52.302;10.572;2023-07-20T08:44:26;100483.44;;;21.47;49.68
40490;BME280;26196;52.302;10.572;2023-07-20T08:48:27;100475.78;;;21.42;49.58
40490;BME280;26196;52.302;10.572;2023-07-20T08:53:05;100487.59;;;21.51;49.35
40490;BME280;26196;52.302;10.572;2023-07-20T08:57:06;100471.53;;;21.39;49.72
40490;BME280;26196;52.302;10.572;2023-07-20T09:01:41;100482.28;;;21.51;49.28
40490;BME280;26196;52.302;10.572;2023-07-20T09:05:44;100459.38;;;21.35;49.11
40490;BME280;26196;52.302;10.572;2023-07-20T09:10:22;100479.69;;;21.49;48.89
40490;BME280;26196;52.302;10.572;2023-07-20T09:14:23;100464.19;;;21.30;48.50
40490;BME280;26196;52.302;10.572;2023-07-20T09:23:38;100473.41;;;21.50;48.35
40490;BME280;26196;52.302;10.572;2023-07-20T09:27:42;100455.97;;;21.33;48.08
40490;BME280;26196;52.302;10.572;2023-07-20T09:32:20;100472.78;;;21.47;47.69
40490;BME280;26196;52.302;10.572;2023-07-20T09:36:55;100475.44;;;21.47;47.48
40490;BME280;26196;52.302;10.572;2023-07-20T09:41:30;100485.50;;;21.43;47.21
40490;BME280;26196;52.302;10.572;2023-07-20T09:45:40;100482.47;;;21.35;47.16
40490;BME280;26196;52.302;10.572;2023-07-20T09:50:15;100490.47;;;21.48;47.29
40490;BME280;26196;52.302;10.572;2023-07-20T09:54:16;100468.78;;;21.28;46.47
40490;BME280;26196;52.302;10.572;2023-07-20T09:58:51;100480.38;;;21.40;46.45
40490;BME280;26196;52.302;10.572;2023-07-20T10:02:52;100468.78;;;21.41;46.53
40490;BME280;26196;52.302;10.572;2023-07-20T10:11:30;100478.13;;;21.47;46.06
40490;BME280;26196;52.302;10.572;2023-07-20T10:15:50;100452.13;;;21.37;45.27
40490;BME280;26196;52.302;10.572;2023-07-20T10:20:12;100468.63;;;21.42;44.73
40490;BME280;26196;52.302;10.572;2023-07-20T10:24:14;100455.84;;;21.35;44.62
40490;BME280;26196;52.302;10.572;2023-07-20T10:28:15;100457.81;;;21.33;43.71
40490;BME280;26196;52.302;10.572;2023-07-20T10:32:15;100465.03;;;21.44;43.91
40490;BME280;26196;52.302;10.572;2023-07-20T10:40:55;100429.22;;;21.35;44.26
40490;BME280;26196;52.302;10.572;2023-07-20T10:49:34;100453.91;;;21.50;44.20
40490;BME280;26196;52.302;10.572;2023-07-20T10:58:50;100446.34;;;21.56;43.60
40490;BME280;26196;52.302;10.572;2023-07-20T11:08:03;100453.69;;;21.53;43.08
40490;BME280;26196;52.302;10.572;2023-07-20T11:12:38;100448.13;;;21.56;43.36
40490;BME280;26196;52.302;10.572;2023-07-20T11:17:13;100464.63;;;21.61;43.48
40490;BME280;26196;52.302;10.572;2023-07-20T11:21:14;100441.31;;;21.40;43.39
40490;BME280;26196;52.302;10.572;2023-07-20T11:25:50;100456.13;;;21.56;43.33
40490;BME280;26196;52.302;10.572;2023-07-20T11:30:24;100464.84;;;21.58;43.28
40490;BME280;26196;52.302;10.572;2023-07-20T11:34:25;100463.91;;;21.59;43.38
40490;BME280;26196;52.302;10.572;2023-07-20T11:38:27;100448.34;;;21.53;43.37
40490;BME280;26196;52.302;10.572;2023-07-20T11:43:01;100457.28;;;21.65;43.14
40490;BME280;26196;52.302;10.572;2023-07-20T11:47:08;100463.53;;;21.63;43.29
40490;BME280;26196;52.302;10.572;2023-07-20T12:00:54;100459.28;;;21.61;42.77
40490;BME280;26196;52.302;10.572;2023-07-20T12:05:29;100458.56;;;21.59;42.41
40490;BME280;26196;52.302;10.572;2023-07-20T12:10:07;100457.50;;;21.61;42.73
40490;BME280;26196;52.302;10.572;2023-07-20T12:14:08;100433.69;;;21.47;42.36
40490;BME280;26196;52.302;10.572;2023-07-20T12:18:43;100462.09;;;21.59;42.36
40490;BME280;26196;52.302;10.572;2023-07-20T12:22:43;100450.69;;;21.57;42.44
40490;BME280;26196;52.302;10.572;2023-07-20T12:26:44;100425.09;;;21.44;42.55
40490;BME280;26196;52.302;10.572;2023-07-20T12:31:20;100450.22;;;21.63;42.62
40490;BME280;26196;52.302;10.572;2023-07-20T12:35:56;100447.78;;;21.60;42.17
40490;BME280;26196;52.302;10.572;2023-07-20T12:40:34;100453.03;;;21.62;42.36
40490;BME280;26196;52.302;10.572;2023-07-20T12:49:09;100419.81;;;21.55;42.63
40490;BME280;26196;52.302;10.572;2023-07-20T12:53:09;100432.97;;;21.69;42.75
40490;BME280;26196;52.302;10.572;2023-07-20T12:57:45;100424.84;;;21.71;42.32
40490;BME280;26196;52.302;10.572;2023-07-20T13:02:20;100418.44;;;21.73;42.65
40490;BME280;26196;52.302;10.572;2023-07-20T13:06:57;100420.34;;;21.71;42.08
40490;BME280;26196;52.302;10.572;2023-07-20T13:10:58;100420.59;;;21.68;41.76
40490;BME280;26196;52.302;10.572;2023-07-20T13:15:02;100391.25;;;21.57;41.90
40490;BME280;26196;52.302;10.572;2023-07-20T13:19:05;100391.50;;;21.54;41.91
40490;BME280;26196;52.302;10.572;2023-07-20T13:23:43;100417.59;;;21.73;41.17
40490;BME280;26196;52.302;10.572;2023-07-20T13:28:20;100420.75;;;21.78;41.58
40490;BME280;26196;52.302;10.572;2023-07-20T13:32:54;100414.44;;;21.79;41.08
40490;BME280;26196;52.302;10.572;2023-07-20T13:36:55;100402.69;;;21.70;40.88
40490;BME280;26196;52.302;10.572;2023-07-20T13:41:29;100418.94;;;21.78;40.66
40490;BME280;26196;52.302;10.572;2023-07-20T13:46:06;100422.69;;;21.76;40.47
40490;BME280;26196;52.302;10.572;2023-07-20T13:50:40;100415.19;;;21.81;40.71
40490;BME280;26196;52.302;10.572;2023-07-20T13:59:18;100413.09;;;21.73;41.19
40490;BME280;26196;52.302;10.572;2023-07-20T14:03:19;100411.78;;;21.79;40.42
40490;BME280;26196;52.302;10.572;2023-07-20T14:07:19;100404.38;;;21.71;40.38
40490;BME280;26196;52.302;10.572;2023-07-20T14:11:54;100422.44;;;21.79;40.78
40490;BME280;26196;52.302;10.572;2023-07-20T14:20:52;100396.63;;;21.79;40.99
40490;BME280;26196;52.302;10.572;2023-07-20T14:24:52;100415.19;;;21.81;39.92
40490;BME280;26196;52.302;10.572;2023-07-20T14:29:30;100417.75;;;21.82;39.79
40490;BME280;26196;52.302;10.572;2023-07-20T14:33:31;100364.22;;;21.50;39.83
40490;BME280;26196;52.302;10.572;2023-07-20T14:38:06;100427.31;;;21.85;40.00
40490;BME280;26196;52.302;10.572;2023-07-20T14:47:15;100430.09;;;21.83;38.62
40490;BME280;26196;52.302;10.572;2023-07-20T14:51:15;100405.25;;;21.72;39.72
40490;BME280;26196;52.302;10.572;2023-07-20T14:55:49;100427.44;;;21.83;38.61
40490;BME280;26196;52.302;10.572;2023-07-20T14:59:50;100380.38;;;21.60;39.34
40490;BME280;26196;52.302;10.572;2023-07-20T15:04:24;100428.41;;;21.82;38.93
40490;BME280;26196;52.302;10.572;2023-07-20T15:09:02;100433.72;;;21.82;39.46
40490;BME280;26196;52.302;10.572;2023-07-20T15:13:36;100426.69;;;21.81;39.53
40490;BME280;26196;52.302;10.572;2023-07-20T15:17:38;100424.25;;;21.78;39.65
40490;BME280;26196;52.302;10.572;2023-07-20T15:21:38;100421.59;;;21.78;39.41
40490;BME280;26196;52.302;10.572;2023-07-20T15:25:40;100398.59;;;21.77;39.75
40490;BME280;26196;52.302;10.572;2023-07-20T15:29:40;100367.25;;;21.46;39.28
40490;BME280;26196;52.302;10.572;2023-07-20T15:33:41;100367.28;;;21.57;40.05
40490;BME280;26196;52.302;10.572;2023-07-20T15:37:41;100342.03;;;21.38;39.72
40490;BME280;26196;52.302;10.572;2023-07-20T15:42:19;100418.25;;;21.88;39.68
40490;BME280;26196;52.302;10.572;2023-07-20T15:50:56;100425.25;;;21.89;40.01
40490;BME280;26196;52.302;10.572;2023-07-20T15:54:57;100414.34;;;21.80;39.82
40490;BME280;26196;52.302;10.572;2023-07-20T15:58:57;100417.75;;;21.82;39.81
40490;BME280;26196;52.302;10.572;2023-07-20T16:02:58;100421.13;;;21.84;40.08
40490;BME280;26196;52.302;10.572;2023-07-20T16:11:36;100404.53;;;21.81;40.44
40490;BME280;26196;52.302;10.572;2023-07-20T16:15:37;100374.34;;;21.69;40.26
40490;BME280;26196;52.302;10.572;2023-07-20T16:20:11;100411.09;;;21.88;39.99
40490;BME280;26196;52.302;10.572;2023-07-20T16:24:12;100376.78;;;21.72;40.05
40490;BME280;26196;52.302;10.572;2023-07-20T16:28:47;100400.31;;;21.90;40.22
40490;BME280;26196;52.302;10.572;2023-07-20T16:32:47;100388.44;;;21.82;39.24
40490;BME280;26196;52.302;10.572;2023-07-20T16:36:48;100381.75;;;21.77;39.82
40490;BME280;26196;52.302;10.572;2023-07-20T16:41:25;100395.72;;;21.92;39.89
40490;BME280;26196;52.302;10.572;2023-07-20T16:45:26;100385.78;;;21.82;40.16
40490;BME280;26196;52.302;10.572;2023-07-20T16:49:26;100381.16;;;21.84;40.29
40490;BME280;26196;52.302;10.572;2023-07-20T16:53:27;100375.81;;;21.84;40.13
40490;BME280;26196;52.302;10.572;2023-07-20T16:57:27;100347.47;;;21.72;40.36
40490;BME280;26196;52.302;10.572;2023-07-20T17:01:27;100346.25;;;21.65;40.35
40490;BME280;26196;52.302;10.572;2023-07-20T17:05:28;100399.13;;;21.94;39.29
40490;BME280;26196;52.302;10.572;2023-07-20T17:10:03;100396.78;;;21.89;39.27
40490;BME280;26196;52.302;10.572;2023-07-20T17:14:38;100391.59;;;21.88;38.84
40490;BME280;26196;52.302;10.572;2023-07-20T17:19:15;100387.84;;;21.90;39.16
40490;BME280;26196;52.302;10.572;2023-07-20T17:23:49;100390.88;;;21.85;39.16
40490;BME280;26196;52.302;10.572;2023-07-20T17:28:27;100396.94;;;21.88;40.37
40490;BME280;26196;52.302;10.572;2023-07-20T17:32:28;100375.31;;;21.79;40.09
40490;BME280;26196;52.302;10.572;2023-07-20T17:37:04;100393.88;;;21.92;40.02
40490;BME280;26196;52.302;10.572;2023-07-20T17:41:04;100384.56;;;21.87;39.86
40490;BME280;26196;52.302;10.572;2023-07-20T17:45:39;100391.22;;;21.92;39.71
40490;BME280;26196;52.302;10.572;2023-07-20T17:50:16;100393.19;;;21.90;40.36
40490;BME280;26196;52.302;10.572;2023-07-20T17:59:28;100384.22;;;21.91;39.52
40490;BME280;26196;52.302;10.572;2023-07-20T18:04:06;100382.88;;;21.85;39.28
40490;BME280;26196;52.302;10.572;2023-07-20T18:13:18;100386.72;;;21.81;39.75
40490;BME280;26196;52.302;10.572;2023-07-20T18:17:18;100373.41;;;21.81;39.65
40490;BME280;26196;52.302;10.572;2023-07-20T18:21:55;100375.47;;;21.78;39.82
40490;BME280;26196;52.302;10.572;2023-07-20T18:26:29;100364.22;;;21.85;40.60
40490;BME280;26196;52.302;10.572;2023-07-20T18:30:30;100358.25;;;21.82;40.91
40490;BME280;26196;52.302;10.572;2023-07-20T18:35:06;100373.66;;;21.90;41.06
40490;BME280;26196;52.302;10.572;2023-07-20T18:39:45;100373.31;;;21.94;41.28
40490;BME280;26196;52.302;10.572;2023-07-20T18:44:20;100370.41;;;21.97;41.26
40490;BME280;26196;52.302;10.572;2023-07-20T18:48:55;100375.63;;;21.99;41.31
40490;BME280;26196;52.302;10.572;2023-07-20T18:53:32;100378.19;;;22.00;41.35
40490;BME280;26196;52.302;10.572;2023-07-20T18:57:33;100379.97;;;22.00;41.62
40490;BME280;26196;52.302;10.572;2023-07-20T19:01:33;100368.13;;;21.93;41.11
40490;BME280;26196;52.302;10.572;2023-07-20T19:05:33;100370.53;;;21.96;41.00
40490;BME280;26196;52.302;10.572;2023-07-20T19:09:40;100341.91;;;21.75;41.06
40490;BME280;26196;52.302;10.572;2023-07-20T19:13:41;100358.88;;;21.85;41.09
40490;BME280;26196;52.302;10.572;2023-07-20T19:17:41;100372.72;;;21.91;40.95
40490;BME280;26196;52.302;10.572;2023-07-20T19:21:41;100382.88;;;21.97;41.02
40490;BME280;26196;52.302;10.572;2023-07-20T19:25:42;100382.53;;;21.90;40.91
40490;BME280;26196;52.302;10.572;2023-07-20T19:29:42;100353.88;;;21.70;40.89
40490;BME280;26196;52.302;10.572;2023-07-20T19:33:42;100353.75;;;21.71;41.27
40490;BME280;26196;52.302;10.572;2023-07-20T19:42:21;100421.44;;;22.04;41.14
40490;BME280;26196;52.302;10.572;2023-07-20T19:46:22;100404.69;;;21.91;41.16
40490;BME280;26196;52.302;10.572;2023-07-20T19:50:22;100410.00;;;21.91;41.03
40490;BME280;26196;52.302;10.572;2023-07-20T19:54:23;100422.13;;;21.95;41.12
40490;BME280;26196;52.302;10.572;2023-07-20T19:58:23;100402.47;;;21.84;40.91
40490;BME280;26196;52.302;10.572;2023-07-20T20:02:23;100413.63;;;21.90;40.87
40490;BME280;26196;52.302;10.572;2023-07-20T20:06:24;100417.28;;;21.89;40.95
40490;BME280;26196;52.302;10.572;2023-07-20T20:11:01;100433.06;;;22.03;40.96
40490;BME280;26196;52.302;10.572;2023-07-20T20:15:02;100307.47;;;21.26;40.94
40490;BME280;26196;52.302;10.572;2023-07-20T20:19:03;100425.41;;;21.98;40.95
40490;BME280;26196;52.302;10.572;2023-07-20T20:23:40;100432.34;;;22.01;41.06
40490;BME280;26196;52.302;10.572;2023-07-20T20:27:41;100410.59;;;21.83;40.96
40490;BME280;26196;52.302;10.572;2023-07-20T20:31:41;100425.03;;;21.92;40.53
40490;BME280;26196;52.302;10.572;2023-07-20T20:36:19;100436.81;;;22.00;41.04
40490;BME280;26196;52.302;10.572;2023-07-20T20:40:19;100410.47;;;21.84;40.92
40490;BME280;26196;52.302;10.572;2023-07-20T20:48:56;100395.28;;;21.74;40.55
40490;BME280;26196;52.302;10.572;2023-07-20T20:52:57;100403.94;;;21.77;40.72
40490;BME280;26196;52.302;10.572;2023-07-20T20:56:57;100410.19;;;21.76;40.74
40490;BME280;26196;52.302;10.572;2023-07-20T21:01:33;100430.00;;;21.96;40.71
40490;BME280;26196;52.302;10.572;2023-07-20T21:05:34;100426.75;;;21.93;40.53
40490;BME280;26196;52.302;10.572;2023-07-20T21:09:36;100403.56;;;21.82;40.58
40490;BME280;26196;52.302;10.572;2023-07-20T21:13:37;100400.03;;;21.81;40.51
40490;BME280;26196;52.302;10.572;2023-07-20T21:17:37;100412.91;;;21.88;40.50
40490;BME280;26196;52.302;10.572;2023-07-20T21:21:38;100288.91;;;21.13;40.45
40490;BME280;26196;52.302;10.572;2023-07-20T21:25:38;100377.97;;;21.68;40.15
40490;BME280;26196;52.302;10.572;2023-07-20T21:29:38;100365.88;;;21.64;40.26
40490;BME280;26196;52.302;10.572;2023-07-20T21:34:16;100414.50;;;21.90;40.24
40490;BME280;26196;52.302;10.572;2023-07-20T21:38:16;100395.19;;;21.75;40.16
40490;BME280;26196;52.302;10.572;2023-07-20T21:42:53;100418.09;;;21.89;40.12
40490;BME280;26196;52.302;10.572;2023-07-20T21:46:54;100409.75;;;21.82;40.47
40490;BME280;26196;52.302;10.572;2023-07-20T21:50:54;100385.34;;;21.65;40.45
40490;BME280;26196;52.302;10.572;2023-07-20T21:54:55;100380.59;;;21.57;40.41
40490;BME280;26196;52.302;10.572;2023-07-20T21:58:56;100405.69;;;21.66;40.81
40490;BME280;26196;52.302;10.572;2023-07-20T22:03:34;100435.41;;;21.83;40.47
40490;BME280;26196;52.302;10.572;2023-07-20T22:07:34;100414.31;;;21.69;40.44
40490;BME280;26196;52.302;10.572;2023-07-20T22:11:34;100428.13;;;21.74;40.60
40490;BME280;26196;52.302;10.572;2023-07-20T22:16:12;100441.22;;;21.77;40.65
40490;BME280;26196;52.302;10.572;2023-07-20T22:20:12;100418.25;;;21.63;40.47
40490;BME280;26196;52.302;10.572;2023-07-20T22:24:13;100403.72;;;21.56;40.43
40490;BME280;26196;52.302;10.572;2023-07-20T22:28:14;100416.56;;;21.62;40.36
40490;BME280;26196;52.302;10.572;2023-07-20T22:32:14;100428.56;;;21.68;40.07
40490;BME280;26196;52.302;10.572;2023-07-20T22:36:14;100395.56;;;21.47;40.10
40490;BME280;26196;52.302;10.572;2023-07-20T22:40:14;100377.56;;;21.37;39.69
40490;BME280;26196;52.302;10.572;2023-07-20T22:44:15;100365.56;;;21.32;39.92
40490;BME280;26196;52.302;10.572;2023-07-20T22:48:49;100411.16;;;21.64;40.10
40490;BME280;26196;52.302;10.572;2023-07-20T22:52:50;100382.75;;;21.52;39.88
40490;BME280;26196;52.302;10.572;2023-07-20T22:56:50;100404.81;;;21.54;40.13
40490;BME280;26196;52.302;10.572;2023-07-20T23:00:51;100396.19;;;21.50;39.88
40490;BME280;26196;52.302;10.572;2023-07-20T23:05:25;100402.00;;;21.55;39.79
40490;BME280;26196;52.302;10.572;2023-07-20T23:09:26;100387.69;;;21.45;39.64
40490;BME280;26196;52.302;10.572;2023-07-20T23:13:27;100372.06;;;21.40;39.68
40490;BME280;26196;52.302;10.572;2023-07-20T23:18:02;100392.66;;;21.50;39.87
40490;BME280;26196;52.302;10.572;2023-07-20T23:22:03;100365.56;;;21.32;39.87
40490;BME280;26196;52.302;10.572;2023-07-20T23:26:04;100392.91;;;21.47;39.42
40490;BME280;26196;52.302;10.572;2023-07-20T23:30:04;100370.78;;;21.33;39.83
40490;BME280;26196;52.302;10.572;2023-07-20T23:34:05;100375.38;;;21.31;39.51
40490;BME280;26196;52.302;10.572;2023-07-20T23:38:05;100363.25;;;21.27;39.62